createdAt,value
2024-02-24T00:00:54.106Z,1.10
2024-02-24T00:03:22.878Z,1.20
2024-02-24T00:05:50.197Z,1.10
2024-02-24T00:08:17.287Z,1.00
2024-02-24T00:10:44.150Z,1.00
2024-02-24T00:13:11.015Z,1.00
2024-02-24T00:15:37.959Z,0.90
2024-02-24T00:18:05.895Z,0.90
2024-02-24T00:20:32.912Z,0.90
2024-02-24T00:22:59.665Z,1.00
2024-02-24T00:25:26.552Z,1.00
2024-02-24T00:27:53.269Z,1.00
2024-02-24T00:30:20.082Z,1.00
2024-02-24T00:32:47.165Z,0.90
2024-02-24T00:35:14.236Z,0.80
2024-02-24T00:37:40.973Z,0.70
2024-02-24T00:40:10.102Z,0.70
2024-02-24T00:42:36.983Z,0.60
2024-02-24T00:45:04.250Z,0.50
2024-02-24T00:47:31.368Z,0.40
2024-02-24T00:49:58.293Z,0.40
2024-02-24T00:52:27.081Z,0.30
2024-02-24T00:54:53.879Z,0.30
2024-02-24T00:57:20.889Z,0.20
2024-02-24T00:59:47.640Z,0.20
2024-02-24T01:02:14.787Z,0.10
2024-02-24T01:04:41.660Z,0.10
2024-02-24T01:07:09.608Z,0.00
2024-02-24T01:09:36.371Z,-0.10
2024-02-24T01:12:03.850Z,-0.10
2024-02-24T01:14:30.912Z,-0.20
2024-02-24T01:16:57.850Z,-0.20
2024-02-24T01:19:24.857Z,-0.20
2024-02-24T01:21:52.284Z,-0.10
2024-02-24T01:24:20.070Z,-0.10
2024-02-24T01:26:46.977Z,0.00
2024-02-24T01:29:13.839Z,0.00
2024-02-24T01:31:41.015Z,0.10
2024-02-24T01:34:07.790Z,0.10
2024-02-24T01:36:34.581Z,0.10
2024-02-24T01:39:01.338Z,0.00
2024-02-24T01:41:28.162Z,0.00
2024-02-24T01:43:55.008Z,0.00
2024-02-24T01:46:21.930Z,-0.10
2024-02-24T01:48:49.002Z,-0.20
2024-02-24T01:51:16.707Z,-0.30
2024-02-24T01:53:44.185Z,-0.30
2024-02-24T01:56:11.392Z,-0.40
2024-02-24T01:58:38.695Z,-0.50
2024-02-24T02:01:07.223Z,-0.50
2024-02-24T02:03:35.115Z,-0.60
2024-02-24T02:06:03.714Z,-0.60
2024-02-24T02:08:30.625Z,-0.60
2024-02-24T02:10:57.832Z,-0.70
2024-02-24T02:13:24.907Z,-0.70
2024-02-24T02:15:54.018Z,-0.80
2024-02-24T02:18:21.672Z,-0.80
2024-02-24T02:20:51.638Z,-0.90
2024-02-24T02:23:18.984Z,-0.90
2024-02-24T02:25:45.769Z,-0.90
2024-02-24T02:28:12.802Z,-0.90
2024-02-24T02:30:39.593Z,-0.80
2024-02-24T02:33:07.778Z,-0.90
2024-02-24T02:35:35.204Z,-0.90
2024-02-24T02:38:02.517Z,-1.00
2024-02-24T02:40:29.290Z,-1.00
2024-02-24T02:42:56.020Z,-0.90
2024-02-24T02:45:22.803Z,-0.90
2024-02-24T02:47:49.826Z,-0.90
2024-02-24T02:50:16.856Z,-1.00
2024-02-24T02:52:43.683Z,-1.00
2024-02-24T02:55:10.529Z,-1.10
2024-02-24T02:57:37.293Z,-1.10
2024-02-24T03:00:06.568Z,-1.00
2024-02-24T03:02:33.347Z,-0.90
2024-02-24T03:05:00.540Z,-0.90
2024-02-24T03:07:27.528Z,-1.10
2024-02-24T03:09:54.712Z,-1.10
2024-02-24T03:12:21.756Z,-1.20
2024-02-24T03:14:48.672Z,-1.20
2024-02-24T03:17:15.690Z,-1.30
2024-02-24T03:19:42.549Z,-1.20
2024-02-24T03:22:09.332Z,-1.30
2024-02-24T03:24:36.180Z,-1.30
2024-02-24T03:27:03.042Z,-1.40
2024-02-24T03:29:29.834Z,-1.30
2024-02-24T03:31:56.706Z,-1.40
2024-02-24T03:34:23.496Z,-1.40
2024-02-24T03:36:50.324Z,-1.40
2024-02-24T03:39:19.662Z,-1.40
2024-02-24T03:41:46.894Z,-1.30
2024-02-24T03:44:13.719Z,-1.20
2024-02-24T03:46:40.550Z,-1.30
2024-02-24T03:49:07.503Z,-1.30
2024-02-24T03:51:34.443Z,-1.30
2024-02-24T03:54:01.298Z,-1.30
2024-02-24T03:56:28.098Z,-1.30
2024-02-24T03:58:54.866Z,-1.30
2024-02-24T04:01:21.660Z,-1.30
2024-02-24T04:03:48.479Z,-1.30
2024-02-24T04:06:17.475Z,-1.40
2024-02-24T04:08:44.346Z,-1.40
2024-02-24T04:11:11.985Z,-1.30
2024-02-24T04:13:38.862Z,-1.30
2024-02-24T04:16:06.016Z,-1.40
2024-02-24T04:18:33.087Z,-1.40
2024-02-24T04:20:59.985Z,-1.50
2024-02-24T04:23:26.788Z,-1.50
2024-02-24T04:25:53.796Z,-1.50
2024-02-24T04:28:22.639Z,-1.50
2024-02-24T04:30:49.855Z,-1.50
2024-02-24T04:33:18.321Z,-1.50
2024-02-24T04:35:45.470Z,-1.50
2024-02-24T04:38:12.399Z,-1.60
2024-02-24T04:40:39.198Z,-1.60
2024-02-24T04:43:05.961Z,-1.60
2024-02-24T04:45:32.925Z,-1.70
2024-02-24T04:48:00.067Z,-1.70
2024-02-24T04:50:28.436Z,-1.70
2024-02-24T04:52:55.182Z,-1.60
2024-02-24T04:55:22.052Z,-1.60
2024-02-24T04:57:49.081Z,-1.60
2024-02-24T05:00:16.044Z,-1.60
2024-02-24T05:02:42.921Z,-1.60
2024-02-24T05:05:12.500Z,-1.60
2024-02-24T05:07:39.763Z,-1.70
2024-02-24T05:10:06.854Z,-1.70
2024-02-24T05:12:33.711Z,-1.80
2024-02-24T05:15:00.555Z,-1.80
2024-02-24T05:17:27.502Z,-1.80
2024-02-24T05:19:54.210Z,-1.80
2024-02-24T05:22:22.976Z,-1.70
2024-02-24T05:24:50.483Z,-1.70
2024-02-24T05:27:17.249Z,-1.60
2024-02-24T05:29:47.773Z,-1.60
2024-02-24T05:32:18.291Z,-1.50
2024-02-24T05:34:45.454Z,-1.50
2024-02-24T05:37:12.580Z,-1.60
2024-02-24T05:39:39.642Z,-1.60
2024-02-24T05:42:09.489Z,-1.50
2024-02-24T05:44:36.240Z,-1.50
2024-02-24T05:47:03.126Z,-1.40
2024-02-24T05:49:29.912Z,-1.40
2024-02-24T05:51:56.725Z,-1.30
2024-02-24T05:54:24.292Z,-1.30
2024-02-24T05:56:51.336Z,-1.20
2024-02-24T05:59:19.733Z,-1.10
2024-02-24T06:01:47.224Z,-1.10
2024-02-24T06:04:15.144Z,-1.00
2024-02-24T06:06:42.113Z,-1.00
2024-02-24T06:09:08.846Z,-1.00
2024-02-24T06:11:35.673Z,-0.90
2024-02-24T06:14:02.496Z,-0.90
2024-02-24T06:16:29.301Z,-0.90
2024-02-24T06:18:56.119Z,-0.80
2024-02-24T06:21:22.886Z,-0.70
2024-02-24T06:23:49.910Z,-0.70
2024-02-24T06:26:16.942Z,-0.50
2024-02-24T06:28:43.818Z,-0.40
2024-02-24T06:31:10.648Z,-0.20
2024-02-24T06:33:37.594Z,-0.10
2024-02-24T06:36:04.762Z,0.10
2024-02-24T06:38:31.767Z,0.20
2024-02-24T06:40:58.849Z,0.30
2024-02-24T06:43:26.074Z,0.40
2024-02-24T06:45:52.870Z,0.60
2024-02-24T06:48:19.745Z,0.70
2024-02-24T06:50:46.672Z,0.80
2024-02-24T06:53:13.952Z,0.90
2024-02-24T06:55:40.796Z,0.90
2024-02-24T06:58:08.606Z,1.00
2024-02-24T07:00:36.240Z,1.00
2024-02-24T07:03:03.167Z,1.00
2024-02-24T07:05:30.205Z,1.10
2024-02-24T07:07:57.093Z,1.10
2024-02-24T07:10:24.218Z,1.20
2024-02-24T07:12:50.989Z,1.30
2024-02-24T07:15:17.993Z,1.40
2024-02-24T07:17:44.891Z,1.40
2024-02-24T07:20:12.319Z,1.60
2024-02-24T07:22:39.097Z,1.70
2024-02-24T07:25:06.166Z,1.80
2024-02-24T07:27:35.152Z,2.00
2024-02-24T07:30:02.032Z,2.20
2024-02-24T07:32:28.897Z,2.30
2024-02-24T07:34:56.748Z,2.50
2024-02-24T07:37:23.752Z,2.60
2024-02-24T07:39:50.594Z,2.60
2024-02-24T07:42:17.492Z,2.70
2024-02-24T07:44:44.271Z,2.70
2024-02-24T07:47:11.194Z,2.70
2024-02-24T07:49:38.046Z,2.70
2024-02-24T07:52:05.838Z,2.80
2024-02-24T07:54:32.906Z,2.70
2024-02-24T07:56:59.898Z,2.80
2024-02-24T07:59:26.861Z,2.80
2024-02-24T08:01:53.698Z,2.80
2024-02-24T08:04:21.913Z,2.70
2024-02-24T08:06:48.956Z,2.70
2024-02-24T08:09:15.857Z,2.60
2024-02-24T08:11:42.774Z,2.60
2024-02-24T08:14:10.436Z,2.60
2024-02-24T08:16:37.681Z,2.60
2024-02-24T08:19:06.232Z,2.70
2024-02-24T08:21:37.888Z,2.70
2024-02-24T08:24:11.091Z,2.80
2024-02-24T08:26:41.411Z,2.90
2024-02-24T08:29:11.984Z,2.90
2024-02-24T08:31:39.675Z,3.20
2024-02-24T08:34:06.993Z,3.40
2024-02-24T08:36:34.157Z,3.60
2024-02-24T08:39:01.496Z,3.80
2024-02-24T08:41:32.933Z,4.00
2024-02-24T08:44:00.364Z,4.10
2024-02-24T08:46:27.143Z,4.10
2024-02-24T08:48:55.402Z,4.10
2024-02-24T08:51:22.642Z,4.10
2024-02-24T08:53:49.847Z,4.00
2024-02-24T08:56:20.688Z,4.00
2024-02-24T08:58:48.360Z,4.00
2024-02-24T09:01:16.088Z,4.20
2024-02-24T09:03:43.171Z,4.40
2024-02-24T09:06:10.255Z,4.50
2024-02-24T09:08:38.731Z,4.50
2024-02-24T09:11:05.791Z,4.60
2024-02-24T09:13:32.640Z,4.50
2024-02-24T09:15:59.961Z,4.50
2024-02-24T09:18:27.759Z,4.40
2024-02-24T09:20:54.591Z,4.40
2024-02-24T09:23:21.557Z,4.40
2024-02-24T09:25:48.388Z,4.40
2024-02-24T09:28:15.119Z,4.40
2024-02-24T09:30:42.267Z,4.50
2024-02-24T09:33:09.290Z,4.50
2024-02-24T09:35:36.718Z,4.60
2024-02-24T09:38:03.511Z,4.50
2024-02-24T09:40:30.357Z,4.50
2024-02-24T09:43:07.800Z,4.60
2024-02-24T09:45:45.554Z,4.70
2024-02-24T09:48:13.919Z,4.60
2024-02-24T09:50:41.740Z,4.60
2024-02-24T09:53:10.129Z,4.70
2024-02-24T09:55:37.780Z,4.70
2024-02-24T09:58:05.101Z,4.80
2024-02-24T10:00:31.802Z,4.90
2024-02-24T10:02:59.362Z,4.90
2024-02-24T10:05:27.253Z,4.90
2024-02-24T10:07:55.411Z,5.00
2024-02-24T10:10:27.280Z,5.00
2024-02-24T10:12:57.827Z,5.10
2024-02-24T10:15:26.007Z,5.10
2024-02-24T10:17:57.866Z,5.20
2024-02-24T10:20:25.302Z,5.40
2024-02-24T10:22:52.386Z,5.80
2024-02-24T10:25:19.366Z,6.20
2024-02-24T10:27:47.085Z,7.00
2024-02-24T10:30:14.047Z,7.80
2024-02-24T10:32:43.433Z,8.10
2024-02-24T10:35:11.723Z,8.00
2024-02-24T10:40:09.534Z,7.70
2024-02-24T10:42:37.160Z,7.40
2024-02-24T10:45:07.791Z,7.10
2024-02-24T10:47:37.040Z,6.90
2024-02-24T10:50:05.017Z,7.00
2024-02-24T10:52:33.040Z,7.60
2024-02-24T10:55:03.387Z,10.70
2024-02-24T10:57:31.612Z,13.90
2024-02-24T11:00:00.763Z,16.40
2024-02-24T11:05:01.246Z,19.70
2024-02-24T11:07:33.310Z,21.20
2024-02-24T11:10:00.240Z,22.40
2024-02-24T11:12:30.667Z,22.60
2024-02-24T11:14:59.388Z,20.30
2024-02-24T11:17:50.094Z,19.20
2024-02-24T11:20:35.853Z,18.30
2024-02-24T11:23:27.625Z,17.70
2024-02-24T11:26:22.108Z,18.40
2024-02-24T11:29:01.380Z,18.10
2024-02-24T11:31:30.612Z,16.90
2024-02-24T11:34:16.936Z,15.20
2024-02-24T11:36:45.055Z,15.10
2024-02-24T11:39:13.579Z,15.50
2024-02-24T11:41:42.104Z,15.60
2024-02-24T11:44:09.667Z,15.50
2024-02-24T11:46:37.077Z,15.40
2024-02-24T11:49:07.233Z,15.60
2024-02-24T11:51:35.456Z,16.20
2024-02-24T11:54:02.316Z,16.90
2024-02-24T11:56:29.140Z,16.90
2024-02-24T11:58:58.587Z,17.40
2024-02-24T12:01:25.500Z,18.30
2024-02-24T12:03:54.508Z,17.30
2024-02-24T12:06:22.792Z,16.50
2024-02-24T12:08:49.722Z,16.10
2024-02-24T12:11:16.807Z,15.20
2024-02-24T12:13:44.974Z,14.60
2024-02-24T12:16:11.757Z,13.80
2024-02-24T12:18:42.899Z,13.40
2024-02-24T12:21:12.072Z,12.90
2024-02-24T12:23:39.985Z,13.10
2024-02-24T12:26:16.717Z,12.60
2024-02-24T12:28:46.313Z,11.60
2024-02-24T12:31:14.870Z,11.70
2024-02-24T12:33:46.403Z,12.30
2024-02-24T12:36:15.194Z,13.30
2024-02-24T12:38:42.351Z,14.50
2024-02-24T12:41:13.452Z,15.20
2024-02-24T12:43:41.935Z,15.60
2024-02-24T12:46:09.584Z,14.50
2024-02-24T12:48:42.286Z,14.10
2024-02-24T12:51:10.637Z,14.50
2024-02-24T12:53:37.585Z,14.50
2024-02-24T12:56:04.630Z,14.80
2024-02-24T12:58:31.559Z,14.90
2024-02-24T13:00:58.805Z,14.70
2024-02-24T13:03:25.979Z,13.90
2024-02-24T13:05:53.086Z,12.60
2024-02-24T13:08:20.189Z,12.10
2024-02-24T13:10:47.247Z,12.00
2024-02-24T13:13:14.412Z,11.60
2024-02-24T13:15:41.208Z,11.70
2024-02-24T13:18:08.325Z,12.00
2024-02-24T13:20:35.432Z,12.10
2024-02-24T13:23:02.332Z,11.90
2024-02-24T13:25:29.138Z,11.60
2024-02-24T13:27:56.242Z,11.40
2024-02-24T13:30:24.241Z,11.20
2024-02-24T13:32:51.748Z,10.70
2024-02-24T13:35:19.000Z,10.50
2024-02-24T13:37:45.833Z,10.50
2024-02-24T13:40:12.599Z,10.40
2024-02-24T13:42:39.679Z,10.20
2024-02-24T13:45:08.301Z,10.20
2024-02-24T13:47:36.435Z,10.10
2024-02-24T13:50:03.992Z,10.00
2024-02-24T13:52:30.761Z,9.90
2024-02-24T13:54:57.642Z,10.00
2024-02-24T13:57:24.545Z,9.80
2024-02-24T13:59:51.463Z,9.70
2024-02-24T14:02:18.878Z,9.60
2024-02-24T14:04:45.918Z,9.40
2024-02-24T14:07:14.845Z,9.40
2024-02-24T14:09:43.115Z,9.40
2024-02-24T14:12:11.986Z,9.50
2024-02-24T14:14:39.113Z,9.70
2024-02-24T14:17:06.523Z,10.10
2024-02-24T14:19:33.761Z,10.60
2024-02-24T14:22:01.644Z,10.70
2024-02-24T14:24:28.466Z,10.60
2024-02-24T14:26:56.067Z,10.50
2024-02-24T14:29:23.489Z,10.30
2024-02-24T14:31:50.421Z,10.40
2024-02-24T14:34:17.695Z,10.40
2024-02-24T14:36:44.643Z,10.10
2024-02-24T14:39:11.701Z,10.00
2024-02-24T14:41:38.639Z,9.80
2024-02-24T14:44:05.498Z,9.80
2024-02-24T14:46:32.376Z,9.80
2024-02-24T14:48:59.365Z,9.80
2024-02-24T14:51:26.363Z,10.00
2024-02-24T14:53:53.670Z,9.70
2024-02-24T14:56:21.302Z,9.70
2024-02-24T14:58:48.078Z,9.70
2024-02-24T15:01:15.901Z,9.70
2024-02-24T15:03:45.404Z,9.70
2024-02-24T15:06:14.476Z,9.70
2024-02-24T15:08:41.403Z,9.70
2024-02-24T15:11:08.265Z,9.60
2024-02-24T15:13:37.558Z,9.60
2024-02-24T15:16:04.951Z,9.70
2024-02-24T15:18:31.895Z,9.60
2024-02-24T15:20:59.842Z,9.60
2024-02-24T15:23:26.873Z,9.60
2024-02-24T15:25:53.692Z,9.60
2024-02-24T15:28:20.424Z,9.60
2024-02-24T15:30:47.458Z,9.50
2024-02-24T15:33:14.491Z,9.40
2024-02-24T15:35:41.710Z,9.30
2024-02-24T15:38:08.563Z,9.20
2024-02-24T15:40:38.758Z,9.10
2024-02-24T15:43:07.650Z,9.00
2024-02-24T15:45:34.398Z,8.90
2024-02-24T15:48:01.302Z,8.80
2024-02-24T15:50:28.531Z,8.60
2024-02-24T15:52:55.630Z,8.50
2024-02-24T15:55:22.527Z,8.40
2024-02-24T15:57:49.475Z,8.30
2024-02-24T16:00:16.758Z,8.20
2024-02-24T16:02:44.582Z,8.10
2024-02-24T16:05:11.601Z,8.00
2024-02-24T16:07:38.469Z,7.90
2024-02-24T16:10:05.807Z,7.70
2024-02-24T16:12:32.593Z,7.60
2024-02-24T16:14:59.528Z,7.50
2024-02-24T16:17:26.571Z,7.30
2024-02-24T16:19:53.620Z,7.20
2024-02-24T16:22:20.665Z,7.10
2024-02-24T16:24:47.426Z,7.00
2024-02-24T16:27:14.302Z,6.90
2024-02-24T16:29:41.171Z,6.80
2024-02-24T16:32:09.794Z,6.70
2024-02-24T16:34:37.480Z,6.60
2024-02-24T16:37:04.644Z,6.50
2024-02-24T16:39:34.381Z,6.40
2024-02-24T16:42:01.748Z,6.20
2024-02-24T16:44:29.054Z,6.10
2024-02-24T16:46:56.244Z,6.00
2024-02-24T16:49:23.589Z,5.90
2024-02-24T16:51:53.229Z,5.80
2024-02-24T16:54:20.254Z,5.60
2024-02-24T16:56:47.168Z,5.50
2024-02-24T16:59:14.164Z,5.40
2024-02-24T17:01:41.176Z,5.30
2024-02-24T17:04:07.991Z,5.10
2024-02-24T17:06:35.178Z,5.10
2024-02-24T17:09:03.812Z,5.00
2024-02-24T17:11:31.285Z,5.00
2024-02-24T17:13:58.270Z,4.90
2024-02-24T17:16:25.079Z,4.90
2024-02-24T17:18:52.334Z,4.80
2024-02-24T17:21:19.622Z,4.80
2024-02-24T17:23:46.753Z,4.70
2024-02-24T17:26:17.271Z,4.70
2024-02-24T17:28:44.627Z,4.60
2024-02-24T17:31:15.067Z,4.60
2024-02-24T17:33:45.344Z,4.60
2024-02-24T17:36:12.866Z,4.60
2024-02-24T17:38:40.073Z,4.50
2024-02-24T17:41:06.921Z,4.50
2024-02-24T17:43:33.912Z,4.40
2024-02-24T17:46:01.032Z,4.40
2024-02-24T17:48:28.139Z,4.40
2024-02-24T17:50:55.574Z,4.40
2024-02-24T17:53:23.529Z,4.30
2024-02-24T17:55:50.850Z,4.30
2024-02-24T17:58:18.666Z,4.30
2024-02-24T18:00:45.837Z,4.30
2024-02-24T18:03:15.325Z,4.30
2024-02-24T18:05:42.468Z,4.30
2024-02-24T18:08:09.446Z,4.30
2024-02-24T18:10:36.369Z,4.20
2024-02-24T18:13:04.393Z,4.00
2024-02-24T18:15:31.216Z,4.30
2024-02-24T18:17:58.173Z,4.20
2024-02-24T18:20:25.696Z,4.10
2024-02-24T18:22:52.506Z,4.20
2024-02-24T18:25:19.350Z,4.20
2024-02-24T18:27:46.112Z,4.20
2024-02-24T18:30:13.499Z,4.20
2024-02-24T18:32:40.572Z,4.20
2024-02-24T18:35:07.719Z,4.10
2024-02-24T18:37:34.448Z,4.30
2024-02-24T18:40:05.699Z,4.20
2024-02-24T18:42:33.402Z,4.20
2024-02-24T18:45:00.540Z,4.20
2024-02-24T18:47:27.585Z,4.20
2024-02-24T18:49:54.879Z,4.20
2024-02-24T18:52:21.761Z,4.20
2024-02-24T18:54:48.903Z,4.20
2024-02-24T18:57:16.102Z,4.10
2024-02-24T18:59:43.785Z,4.20
2024-02-24T19:02:13.436Z,4.10
2024-02-24T19:04:40.893Z,4.30
2024-02-24T19:07:12.078Z,4.10
2024-02-24T19:09:42.397Z,4.00
2024-02-24T19:12:09.771Z,4.00
2024-02-24T19:14:45.465Z,4.00
2024-02-24T19:17:19.049Z,4.40
2024-02-24T19:19:48.862Z,5.00
2024-02-24T19:22:15.822Z,5.50
2024-02-24T19:24:42.547Z,5.60
2024-02-24T19:27:10.037Z,5.70
2024-02-24T19:29:37.677Z,5.90
2024-02-24T19:32:04.758Z,5.70
2024-02-24T19:34:31.905Z,5.70
2024-02-24T19:36:58.735Z,5.60
2024-02-24T19:39:25.661Z,5.50
2024-02-24T19:41:52.521Z,5.60
2024-02-24T19:44:19.355Z,5.30
2024-02-24T19:46:46.107Z,5.20
2024-02-24T19:49:13.180Z,5.10
2024-02-24T19:51:40.067Z,5.10
2024-02-24T19:54:06.879Z,4.90
2024-02-24T19:56:33.755Z,4.90
2024-02-24T19:59:00.655Z,4.90
2024-02-24T20:01:27.462Z,4.80
2024-02-24T20:03:54.340Z,5.00
2024-02-24T20:06:21.282Z,4.80
2024-02-24T20:08:48.239Z,4.70
2024-02-24T20:11:15.144Z,5.40
2024-02-24T20:13:41.911Z,4.80
2024-02-24T20:16:08.974Z,4.50
2024-02-24T20:18:36.004Z,4.40
2024-02-24T20:21:03.215Z,4.50
2024-02-24T20:23:30.031Z,4.20
2024-02-24T20:25:56.836Z,4.50
2024-02-24T20:28:23.589Z,4.50
2024-02-24T20:30:50.393Z,4.70
2024-02-24T20:33:17.315Z,4.60
2024-02-24T20:35:44.175Z,4.90
2024-02-24T20:38:11.138Z,4.60
2024-02-24T20:40:39.528Z,4.60
2024-02-24T20:43:06.383Z,4.60
2024-02-24T20:45:33.101Z,4.50
2024-02-24T20:47:59.875Z,4.50
2024-02-24T20:50:29.231Z,4.40
2024-02-24T20:52:55.978Z,4.30
2024-02-24T20:55:23.077Z,4.20
2024-02-24T20:57:49.865Z,4.20
2024-02-24T21:00:17.014Z,4.10
2024-02-24T21:02:43.928Z,4.20
2024-02-24T21:05:10.876Z,4.10
2024-02-24T21:07:37.611Z,4.00
2024-02-24T21:10:04.517Z,3.90
2024-02-24T21:12:31.236Z,3.80
2024-02-24T21:14:58.129Z,3.70
2024-02-24T21:17:25.145Z,3.70
2024-02-24T21:19:53.148Z,3.60
2024-02-24T21:22:20.045Z,4.00
2024-02-24T21:24:46.773Z,3.50
2024-02-24T21:27:13.639Z,3.40
2024-02-24T21:29:41.426Z,3.30
2024-02-24T21:32:08.224Z,3.10
2024-02-24T21:34:35.192Z,3.10
2024-02-24T21:37:01.961Z,3.00
2024-02-24T21:39:28.665Z,2.90
2024-02-24T21:41:55.502Z,2.80
2024-02-24T21:44:22.596Z,2.70
2024-02-24T21:46:49.315Z,2.70
2024-02-24T21:49:19.231Z,2.50
2024-02-24T21:51:46.033Z,2.50
2024-02-24T21:54:15.603Z,2.70
2024-02-24T21:56:47.879Z,2.50
2024-02-24T21:59:14.629Z,2.40
2024-02-24T22:01:41.333Z,2.30
2024-02-24T22:04:08.131Z,2.30
2024-02-24T22:06:35.500Z,2.30
2024-02-24T22:09:02.829Z,2.30
2024-02-24T22:11:32.926Z,2.20
2024-02-24T22:13:59.729Z,2.30
2024-02-24T22:16:27.354Z,2.10
2024-02-24T22:18:54.536Z,2.10
2024-02-24T22:21:21.882Z,2.00
2024-02-24T22:23:52.939Z,2.10
2024-02-24T22:26:20.331Z,2.00
2024-02-24T22:28:47.173Z,2.00
2024-02-24T22:31:13.941Z,1.90
2024-02-24T22:33:40.867Z,1.90
2024-02-24T22:36:08.086Z,1.80
2024-02-24T22:38:34.814Z,1.90
2024-02-24T22:41:07.367Z,1.80
2024-02-24T22:43:34.488Z,2.10
2024-02-24T22:46:03.593Z,1.80
2024-02-24T22:48:31.591Z,1.70
2024-02-24T22:50:58.421Z,1.80
2024-02-24T22:53:25.194Z,1.70
2024-02-24T22:55:51.899Z,1.70
2024-02-24T22:58:18.629Z,1.70
2024-02-24T23:35:16.006Z,1.60
2024-02-24T23:37:42.845Z,1.60
2024-02-24T23:40:11.050Z,1.50
2024-02-24T23:42:38.785Z,1.50
2024-02-24T23:45:06.430Z,1.50
2024-02-24T23:47:33.456Z,1.50
2024-02-24T23:50:00.343Z,1.40
2024-02-24T23:52:27.241Z,1.40
2024-02-24T23:54:55.977Z,1.10
